sensor_id;sensor_type;location;lat;lon;timestamp;P1;durP1;ratioP1;P2;durP2;ratioP2
5191;SDS011;2615;44.524;11.284;2024-02-26T00:02:21;4.47;;;2.23;;
5191;SDS011;2615;44.524;11.284;2024-02-26T00:04:49;3.97;;;2.00;;
5191;SDS011;2615;44.524;11.284;2024-02-26T00:07:17;3.90;;;2.30;;
5191;SDS011;2615;44.524;11.284;2024-02-26T00:09:46;5.20;;;2.17;;
5191;SDS011;2615;44.524;11.284;2024-02-26T00:12:15;4.30;;;2.33;;
5191;SDS011;2615;44.524;11.284;2024-02-26T00:14:43;3.97;;;2.00;;
5191;SDS011;2615;44.524;11.284;2024-02-26T00:17:13;5.00;;;2.40;;
5191;SDS011;2615;44.524;11.284;2024-02-26T00:19:41;4.17;;;1.97;;
5191;SDS011;2615;44.524;11.284;2024-02-26T00:22:09;4.73;;;2.20;;
5191;SDS011;2615;44.524;11.284;2024-02-26T00:24:39;3.83;;;1.90;;
5191;SDS011;2615;44.524;11.284;2024-02-26T00:27:07;6.93;;;4.50;;
5191;SDS011;2615;44.524;11.284;2024-02-26T00:29:37;3.30;;;2.13;;
5191;SDS011;2615;44.524;11.284;2024-02-26T00:32:05;3.23;;;1.70;;
5191;SDS011;2615;44.524;11.284;2024-02-26T00:34:34;5.80;;;1.90;;
5191;SDS011;2615;44.524;11.284;2024-02-26T00:37:02;3.23;;;1.80;;
5191;SDS011;2615;44.524;11.284;2024-02-26T00:39:30;3.43;;;1.80;;
5191;SDS011;2615;44.524;11.284;2024-02-26T00:41:58;4.43;;;1.63;;
5191;SDS011;2615;44.524;11.284;2024-02-26T00:44:27;3.90;;;2.03;;
5191;SDS011;2615;44.524;11.284;2024-02-26T00:46:56;4.17;;;1.93;;
5191;SDS011;2615;44.524;11.284;2024-02-26T00:49:24;3.00;;;1.73;;
5191;SDS011;2615;44.524;11.284;2024-02-26T00:51:52;6.77;;;1.93;;
5191;SDS011;2615;44.524;11.284;2024-02-26T00:54:20;3.17;;;1.60;;
5191;SDS011;2615;44.524;11.284;2024-02-26T00:56:49;3.20;;;2.03;;
5191;SDS011;2615;44.524;11.284;2024-02-26T00:59:17;3.00;;;1.67;;
5191;SDS011;2615;44.524;11.284;2024-02-26T01:01:45;3.77;;;2.00;;
5191;SDS011;2615;44.524;11.284;2024-02-26T01:04:15;3.63;;;1.97;;
5191;SDS011;2615;44.524;11.284;2024-02-26T01:06:43;4.47;;;1.50;;
5191;SDS011;2615;44.524;11.284;2024-02-26T01:09:11;3.37;;;1.60;;
5191;SDS011;2615;44.524;11.284;2024-02-26T01:11:39;9.13;;;1.97;;
5191;SDS011;2615;44.524;11.284;2024-02-26T01:14:08;2.87;;;1.60;;
5191;SDS011;2615;44.524;11.284;2024-02-26T01:16:36;5.87;;;2.10;;
5191;SDS011;2615;44.524;11.284;2024-02-26T01:19:04;4.50;;;1.90;;
5191;SDS011;2615;44.524;11.284;2024-02-26T01:21:34;4.83;;;1.93;;
5191;SDS011;2615;44.524;11.284;2024-02-26T01:24:02;2.50;;;1.43;;
5191;SDS011;2615;44.524;11.284;2024-02-26T01:26:30;2.60;;;2.13;;
5191;SDS011;2615;44.524;11.284;2024-02-26T01:28:58;4.17;;;2.03;;
5191;SDS011;2615;44.524;11.284;2024-02-26T01:31:26;3.00;;;1.70;;
5191;SDS011;2615;44.524;11.284;2024-02-26T01:33:55;3.93;;;1.70;;
5191;SDS011;2615;44.524;11.284;2024-02-26T01:36:23;5.80;;;1.90;;
5191;SDS011;2615;44.524;11.284;2024-02-26T01:38:53;3.17;;;1.77;;
5191;SDS011;2615;44.524;11.284;2024-02-26T01:41:21;5.30;;;1.70;;
5191;SDS011;2615;44.524;11.284;2024-02-26T01:43:48;3.50;;;1.80;;
5191;SDS011;2615;44.524;11.284;2024-02-26T01:46:16;3.47;;;1.70;;
5191;SDS011;2615;44.524;11.284;2024-02-26T01:48:45;3.67;;;1.80;;
5191;SDS011;2615;44.524;11.284;2024-02-26T01:51:16;3.37;;;1.30;;
5191;SDS011;2615;44.524;11.284;2024-02-26T01:53:45;6.97;;;2.57;;
5191;SDS011;2615;44.524;11.284;2024-02-26T01:56:14;4.03;;;2.00;;
5191;SDS011;2615;44.524;11.284;2024-02-26T01:58:44;3.10;;;1.80;;
5191;SDS011;2615;44.524;11.284;2024-02-26T02:01:13;4.57;;;2.00;;
5191;SDS011;2615;44.524;11.284;2024-02-26T02:03:46;3.97;;;1.80;;
5191;SDS011;2615;44.524;11.284;2024-02-26T02:06:14;6.57;;;1.83;;
5191;SDS011;2615;44.524;11.284;2024-02-26T02:08:43;3.30;;;1.60;;
5191;SDS011;2615;44.524;11.284;2024-02-26T02:11:11;4.90;;;1.83;;
5191;SDS011;2615;44.524;11.284;2024-02-26T02:13:42;2.60;;;1.53;;
5191;SDS011;2615;44.524;11.284;2024-02-26T02:16:10;2.87;;;1.77;;
5191;SDS011;2615;44.524;11.284;2024-02-26T02:18:39;3.10;;;1.70;;
5191;SDS011;2615;44.524;11.284;2024-02-26T02:21:08;4.33;;;1.93;;
5191;SDS011;2615;44.524;11.284;2024-02-26T02:23:36;6.30;;;2.47;;
5191;SDS011;2615;44.524;11.284;2024-02-26T02:26:05;2.83;;;1.73;;
5191;SDS011;2615;44.524;11.284;2024-02-26T02:28:33;4.13;;;2.00;;
5191;SDS011;2615;44.524;11.284;2024-02-26T02:31:02;4.50;;;2.13;;
5191;SDS011;2615;44.524;11.284;2024-02-26T02:33:31;4.37;;;2.00;;
5191;SDS011;2615;44.524;11.284;2024-02-26T02:35:59;3.57;;;1.97;;
5191;SDS011;2615;44.524;11.284;2024-02-26T02:38:29;3.00;;;1.97;;
5191;SDS011;2615;44.524;11.284;2024-02-26T02:40:58;3.67;;;1.80;;
5191;SDS011;2615;44.524;11.284;2024-02-26T02:43:26;4.03;;;1.67;;
5191;SDS011;2615;44.524;11.284;2024-02-26T02:45:54;5.37;;;2.27;;
5191;SDS011;2615;44.524;11.284;2024-02-26T02:48:22;2.80;;;1.87;;
5191;SDS011;2615;44.524;11.284;2024-02-26T02:50:50;3.20;;;1.90;;
5191;SDS011;2615;44.524;11.284;2024-02-26T02:53:19;4.93;;;1.80;;
5191;SDS011;2615;44.524;11.284;2024-02-26T02:55:48;5.20;;;2.17;;
5191;SDS011;2615;44.524;11.284;2024-02-26T02:58:16;3.60;;;1.83;;
5191;SDS011;2615;44.524;11.284;2024-02-26T03:00:45;3.93;;;1.93;;
5191;SDS011;2615;44.524;11.284;2024-02-26T03:03:13;2.63;;;1.67;;
5191;SDS011;2615;44.524;11.284;2024-02-26T03:05:41;4.20;;;1.80;;
5191;SDS011;2615;44.524;11.284;2024-02-26T03:08:09;3.17;;;1.63;;
5191;SDS011;2615;44.524;11.284;2024-02-26T03:10:37;3.67;;;1.70;;
5191;SDS011;2615;44.524;11.284;2024-02-26T03:13:07;3.80;;;2.20;;
5191;SDS011;2615;44.524;11.284;2024-02-26T03:15:35;15.27;;;2.20;;
5191;SDS011;2615;44.524;11.284;2024-02-26T03:18:03;5.90;;;2.60;;
5191;SDS011;2615;44.524;11.284;2024-02-26T03:20:32;6.07;;;3.60;;
5191;SDS011;2615;44.524;11.284;2024-02-26T03:23:00;4.00;;;2.50;;
5191;SDS011;2615;44.524;11.284;2024-02-26T03:25:28;4.37;;;2.47;;
5191;SDS011;2615;44.524;11.284;2024-02-26T03:27:56;3.57;;;2.10;;
5191;SDS011;2615;44.524;11.284;2024-02-26T03:30:26;4.50;;;2.67;;
5191;SDS011;2615;44.524;11.284;2024-02-26T03:32:54;3.63;;;2.57;;
5191;SDS011;2615;44.524;11.284;2024-02-26T03:35:23;4.47;;;3.13;;
5191;SDS011;2615;44.524;11.284;2024-02-26T03:37:51;3.73;;;2.53;;
5191;SDS011;2615;44.524;11.284;2024-02-26T03:40:19;7.00;;;2.83;;
5191;SDS011;2615;44.524;11.284;2024-02-26T03:42:47;7.10;;;2.90;;
5191;SDS011;2615;44.524;11.284;2024-02-26T03:45:15;5.50;;;3.27;;
5191;SDS011;2615;44.524;11.284;2024-02-26T03:47:45;5.10;;;2.90;;
5191;SDS011;2615;44.524;11.284;2024-02-26T03:50:13;3.80;;;2.70;;
5191;SDS011;2615;44.524;11.284;2024-02-26T03:52:41;3.77;;;2.53;;
5191;SDS011;2615;44.524;11.284;2024-02-26T03:55:10;5.13;;;3.20;;
5191;SDS011;2615;44.524;11.284;2024-02-26T03:57:38;3.70;;;2.67;;
5191;SDS011;2615;44.524;11.284;2024-02-26T04:00:06;6.57;;;2.90;;
5191;SDS011;2615;44.524;11.284;2024-02-26T04:02:36;5.03;;;2.90;;
5191;SDS011;2615;44.524;11.284;2024-02-26T04:05:08;6.40;;;3.00;;
5191;SDS011;2615;44.524;11.284;2024-02-26T04:07:37;7.23;;;2.50;;
5191;SDS011;2615;44.524;11.284;2024-02-26T04:10:08;5.33;;;2.33;;
5191;SDS011;2615;44.524;11.284;2024-02-26T04:12:38;7.17;;;2.57;;
5191;SDS011;2615;44.524;11.284;2024-02-26T04:15:07;5.77;;;3.00;;
5191;SDS011;2615;44.524;11.284;2024-02-26T04:17:36;4.43;;;2.90;;
5191;SDS011;2615;44.524;11.284;2024-02-26T04:20:07;3.40;;;2.07;;
5191;SDS011;2615;44.524;11.284;2024-02-26T04:22:40;6.37;;;3.43;;
5191;SDS011;2615;44.524;11.284;2024-02-26T04:25:08;7.40;;;2.93;;
5191;SDS011;2615;44.524;11.284;2024-02-26T04:27:37;6.73;;;2.40;;
5191;SDS011;2615;44.524;11.284;2024-02-26T04:30:05;4.10;;;2.50;;
5191;SDS011;2615;44.524;11.284;2024-02-26T04:32:34;8.10;;;3.03;;
5191;SDS011;2615;44.524;11.284;2024-02-26T04:35:02;4.37;;;2.50;;
5191;SDS011;2615;44.524;11.284;2024-02-26T04:37:32;3.03;;;2.40;;
5191;SDS011;2615;44.524;11.284;2024-02-26T04:40:01;4.37;;;2.60;;
5191;SDS011;2615;44.524;11.284;2024-02-26T04:42:29;6.10;;;2.93;;
5191;SDS011;2615;44.524;11.284;2024-02-26T04:44:57;7.00;;;2.50;;
5191;SDS011;2615;44.524;11.284;2024-02-26T04:47:26;8.07;;;3.20;;
5191;SDS011;2615;44.524;11.284;2024-02-26T04:49:54;14.90;;;2.70;;
5191;SDS011;2615;44.524;11.284;2024-02-26T04:52:22;6.07;;;2.93;;
5191;SDS011;2615;44.524;11.284;2024-02-26T04:54:52;5.07;;;3.43;;
5191;SDS011;2615;44.524;11.284;2024-02-26T04:57:21;3.83;;;2.70;;
5191;SDS011;2615;44.524;11.284;2024-02-26T04:59:49;7.43;;;3.40;;
5191;SDS011;2615;44.524;11.284;2024-02-26T05:02:17;5.00;;;3.27;;
5191;SDS011;2615;44.524;11.284;2024-02-26T05:04:45;5.37;;;3.33;;
5191;SDS011;2615;44.524;11.284;2024-02-26T05:07:13;5.70;;;3.50;;
5191;SDS011;2615;44.524;11.284;2024-02-26T05:09:44;5.70;;;2.97;;
5191;SDS011;2615;44.524;11.284;2024-02-26T05:12:13;6.93;;;3.30;;
5191;SDS011;2615;44.524;11.284;2024-02-26T05:14:42;7.97;;;4.53;;
5191;SDS011;2615;44.524;11.284;2024-02-26T05:17:10;6.63;;;4.10;;
5191;SDS011;2615;44.524;11.284;2024-02-26T05:19:38;6.87;;;5.23;;
5191;SDS011;2615;44.524;11.284;2024-02-26T05:22:06;6.63;;;4.90;;
5191;SDS011;2615;44.524;11.284;2024-02-26T05:24:36;7.80;;;5.00;;
5191;SDS011;2615;44.524;11.284;2024-02-26T05:27:05;5.23;;;4.30;;
5191;SDS011;2615;44.524;11.284;2024-02-26T05:29:34;11.80;;;5.67;;
5191;SDS011;2615;44.524;11.284;2024-02-26T05:32:03;10.33;;;4.90;;
5191;SDS011;2615;44.524;11.284;2024-02-26T05:34:32;8.97;;;5.77;;
5191;SDS011;2615;44.524;11.284;2024-02-26T05:37:00;6.70;;;4.10;;
5191;SDS011;2615;44.524;11.284;2024-02-26T05:39:28;8.13;;;5.13;;
5191;SDS011;2615;44.524;11.284;2024-02-26T05:41:57;9.87;;;5.93;;
5191;SDS011;2615;44.524;11.284;2024-02-26T05:44:26;15.63;;;5.60;;
5191;SDS011;2615;44.524;11.284;2024-02-26T05:46:55;15.83;;;6.80;;
5191;SDS011;2615;44.524;11.284;2024-02-26T05:49:24;9.80;;;5.40;;
5191;SDS011;2615;44.524;11.284;2024-02-26T05:51:52;13.63;;;5.40;;
5191;SDS011;2615;44.524;11.284;2024-02-26T05:54:20;8.97;;;5.90;;
5191;SDS011;2615;44.524;11.284;2024-02-26T05:56:49;7.43;;;4.30;;
5191;SDS011;2615;44.524;11.284;2024-02-26T05:59:17;9.20;;;5.43;;
5191;SDS011;2615;44.524;11.284;2024-02-26T06:01:45;12.60;;;5.63;;
5191;SDS011;2615;44.524;11.284;2024-02-26T06:04:14;10.63;;;4.77;;
5191;SDS011;2615;44.524;11.284;2024-02-26T06:06:43;14.00;;;6.87;;
5191;SDS011;2615;44.524;11.284;2024-02-26T06:09:13;11.53;;;5.50;;
5191;SDS011;2615;44.524;11.284;2024-02-26T06:11:41;8.73;;;5.13;;
5191;SDS011;2615;44.524;11.284;2024-02-26T06:14:09;7.47;;;5.17;;
5191;SDS011;2615;44.524;11.284;2024-02-26T06:16:39;13.30;;;6.57;;
5191;SDS011;2615;44.524;11.284;2024-02-26T06:19:07;11.53;;;5.17;;
5191;SDS011;2615;44.524;11.284;2024-02-26T06:21:40;24.30;;;5.30;;
5191;SDS011;2615;44.524;11.284;2024-02-26T06:24:08;8.17;;;5.40;;
5191;SDS011;2615;44.524;11.284;2024-02-26T06:26:36;24.33;;;9.80;;
5191;SDS011;2615;44.524;11.284;2024-02-26T06:29:05;14.67;;;5.17;;
5191;SDS011;2615;44.524;11.284;2024-02-26T06:31:33;10.07;;;4.67;;
5191;SDS011;2615;44.524;11.284;2024-02-26T06:34:01;14.57;;;5.00;;
5191;SDS011;2615;44.524;11.284;2024-02-26T06:36:30;7.90;;;4.90;;
5191;SDS011;2615;44.524;11.284;2024-02-26T06:39:01;12.90;;;5.37;;
5191;SDS011;2615;44.524;11.284;2024-02-26T06:41:29;6.80;;;4.93;;
5191;SDS011;2615;44.524;11.284;2024-02-26T06:43:57;7.60;;;5.70;;
5191;SDS011;2615;44.524;11.284;2024-02-26T06:46:25;6.73;;;4.77;;
5191;SDS011;2615;44.524;11.284;2024-02-26T06:48:55;9.67;;;6.33;;
5191;SDS011;2615;44.524;11.284;2024-02-26T06:51:23;8.30;;;6.07;;
5191;SDS011;2615;44.524;11.284;2024-02-26T06:53:51;9.70;;;5.90;;
5191;SDS011;2615;44.524;11.284;2024-02-26T06:56:21;11.00;;;5.50;;
5191;SDS011;2615;44.524;11.284;2024-02-26T06:58:49;9.50;;;7.27;;
5191;SDS011;2615;44.524;11.284;2024-02-26T07:01:17;7.77;;;5.60;;
5191;SDS011;2615;44.524;11.284;2024-02-26T07:03:46;10.00;;;5.53;;
5191;SDS011;2615;44.524;11.284;2024-02-26T07:06:14;9.40;;;5.53;;
5191;SDS011;2615;44.524;11.284;2024-02-26T07:08:43;8.57;;;5.40;;
5191;SDS011;2615;44.524;11.284;2024-02-26T07:11:12;7.70;;;5.50;;
5191;SDS011;2615;44.524;11.284;2024-02-26T07:13:42;8.80;;;6.30;;
5191;SDS011;2615;44.524;11.284;2024-02-26T07:16:10;8.13;;;5.50;;
5191;SDS011;2615;44.524;11.284;2024-02-26T07:18:38;7.20;;;5.23;;
5191;SDS011;2615;44.524;11.284;2024-02-26T07:21:07;10.43;;;5.53;;
5191;SDS011;2615;44.524;11.284;2024-02-26T07:23:35;11.37;;;5.10;;
5191;SDS011;2615;44.524;11.284;2024-02-26T07:26:03;6.70;;;5.63;;
5191;SDS011;2615;44.524;11.284;2024-02-26T07:28:32;12.13;;;5.07;;
5191;SDS011;2615;44.524;11.284;2024-02-26T07:31:01;10.57;;;5.90;;
5191;SDS011;2615;44.524;11.284;2024-02-26T07:33:29;8.80;;;6.50;;
5191;SDS011;2615;44.524;11.284;2024-02-26T07:35:58;13.10;;;5.40;;
5191;SDS011;2615;44.524;11.284;2024-02-26T07:38:26;7.30;;;5.50;;
5191;SDS011;2615;44.524;11.284;2024-02-26T07:41:08;9.37;;;5.50;;
5191;SDS011;2615;44.524;11.284;2024-02-26T07:43:36;9.83;;;6.20;;
5191;SDS011;2615;44.524;11.284;2024-02-26T07:46:06;10.20;;;6.73;;
5191;SDS011;2615;44.524;11.284;2024-02-26T07:48:34;9.47;;;6.20;;
5191;SDS011;2615;44.524;11.284;2024-02-26T07:51:02;14.53;;;9.33;;
5191;SDS011;2615;44.524;11.284;2024-02-26T07:53:31;5.97;;;5.03;;
5191;SDS011;2615;44.524;11.284;2024-02-26T07:55:59;7.53;;;6.10;;
5191;SDS011;2615;44.524;11.284;2024-02-26T07:58:27;11.40;;;6.50;;
5191;SDS011;2615;44.524;11.284;2024-02-26T08:00:55;10.23;;;5.60;;
5191;SDS011;2615;44.524;11.284;2024-02-26T08:03:25;14.60;;;6.43;;
5191;SDS011;2615;44.524;11.284;2024-02-26T08:05:53;8.50;;;6.30;;
5191;SDS011;2615;44.524;11.284;2024-02-26T08:08:22;10.47;;;6.47;;
5191;SDS011;2615;44.524;11.284;2024-02-26T08:10:50;9.60;;;6.70;;
5191;SDS011;2615;44.524;11.284;2024-02-26T08:13:18;9.27;;;6.73;;
5191;SDS011;2615;44.524;11.284;2024-02-26T08:15:46;10.73;;;6.67;;
5191;SDS011;2615;44.524;11.284;2024-02-26T08:18:14;10.63;;;8.10;;
5191;SDS011;2615;44.524;11.284;2024-02-26T08:20:44;6.83;;;5.83;;
5191;SDS011;2615;44.524;11.284;2024-02-26T08:23:12;15.20;;;7.97;;
5191;SDS011;2615;44.524;11.284;2024-02-26T08:25:40;9.80;;;6.53;;
5191;SDS011;2615;44.524;11.284;2024-02-26T08:28:08;10.13;;;5.77;;
5191;SDS011;2615;44.524;11.284;2024-02-26T08:30:39;10.30;;;6.63;;
5191;SDS011;2615;44.524;11.284;2024-02-26T08:33:07;9.60;;;6.20;;
5191;SDS011;2615;44.524;11.284;2024-02-26T08:35:36;8.80;;;5.53;;
5191;SDS011;2615;44.524;11.284;2024-02-26T08:38:06;9.87;;;6.60;;
5191;SDS011;2615;44.524;11.284;2024-02-26T08:40:34;9.97;;;7.03;;
5191;SDS011;2615;44.524;11.284;2024-02-26T08:43:02;12.50;;;6.07;;
5191;SDS011;2615;44.524;11.284;2024-02-26T08:45:30;8.00;;;5.50;;
5191;SDS011;2615;44.524;11.284;2024-02-26T08:47:58;9.57;;;5.70;;
5191;SDS011;2615;44.524;11.284;2024-02-26T08:50:27;12.27;;;5.90;;
5191;SDS011;2615;44.524;11.284;2024-02-26T08:52:55;9.57;;;5.53;;
5191;SDS011;2615;44.524;11.284;2024-02-26T08:55:24;10.37;;;6.03;;
5191;SDS011;2615;44.524;11.284;2024-02-26T08:57:53;12.70;;;7.03;;
5191;SDS011;2615;44.524;11.284;2024-02-26T09:00:22;16.10;;;6.33;;
5191;SDS011;2615;44.524;11.284;2024-02-26T09:02:50;9.40;;;5.57;;
5191;SDS011;2615;44.524;11.284;2024-02-26T09:05:18;6.77;;;5.80;;
5191;SDS011;2615;44.524;11.284;2024-02-26T09:07:46;7.83;;;5.10;;
5191;SDS011;2615;44.524;11.284;2024-02-26T09:10:14;10.50;;;5.80;;
5191;SDS011;2615;44.524;11.284;2024-02-26T09:12:44;9.73;;;4.57;;
5191;SDS011;2615;44.524;11.284;2024-02-26T09:15:12;17.97;;;6.90;;
5191;SDS011;2615;44.524;11.284;2024-02-26T09:17:41;11.17;;;4.53;;
5191;SDS011;2615;44.524;11.284;2024-02-26T09:20:11;12.53;;;6.03;;
5191;SDS011;2615;44.524;11.284;2024-02-26T09:22:41;9.40;;;4.57;;
5191;SDS011;2615;44.524;11.284;2024-02-26T09:25:09;9.17;;;4.70;;
5191;SDS011;2615;44.524;11.284;2024-02-26T09:27:38;10.30;;;5.20;;
5191;SDS011;2615;44.524;11.284;2024-02-26T09:30:10;8.77;;;4.67;;
5191;SDS011;2615;44.524;11.284;2024-02-26T09:32:40;10.80;;;5.00;;
5191;SDS011;2615;44.524;11.284;2024-02-26T09:35:08;8.13;;;4.87;;
5191;SDS011;2615;44.524;11.284;2024-02-26T09:37:37;5.93;;;4.03;;
5191;SDS011;2615;44.524;11.284;2024-02-26T09:40:05;8.37;;;4.53;;
5191;SDS011;2615;44.524;11.284;2024-02-26T09:42:36;6.33;;;4.07;;
5191;SDS011;2615;44.524;11.284;2024-02-26T09:45:11;5.20;;;3.40;;
5191;SDS011;2615;44.524;11.284;2024-02-26T09:47:44;7.50;;;4.00;;
5191;SDS011;2615;44.524;11.284;2024-02-26T09:50:16;5.50;;;3.90;;
5191;SDS011;2615;44.524;11.284;2024-02-26T09:52:49;5.27;;;3.50;;
5191;SDS011;2615;44.524;11.284;2024-02-26T09:55:18;4.97;;;3.17;;
5191;SDS011;2615;44.524;11.284;2024-02-26T09:57:47;6.93;;;2.90;;
5191;SDS011;2615;44.524;11.284;2024-02-26T10:00:21;5.60;;;3.20;;
5191;SDS011;2615;44.524;11.284;2024-02-26T10:02:50;6.00;;;3.00;;
5191;SDS011;2615;44.524;11.284;2024-02-26T10:05:18;4.93;;;2.60;;
5191;SDS011;2615;44.524;11.284;2024-02-26T10:07:47;8.77;;;2.67;;
5191;SDS011;2615;44.524;11.284;2024-02-26T10:10:15;5.43;;;2.50;;
5191;SDS011;2615;44.524;11.284;2024-02-26T10:12:45;5.40;;;3.47;;
5191;SDS011;2615;44.524;11.284;2024-02-26T10:15:13;4.87;;;2.80;;
5191;SDS011;2615;44.524;11.284;2024-02-26T10:17:43;3.50;;;2.20;;
5191;SDS011;2615;44.524;11.284;2024-02-26T10:20:11;4.40;;;2.87;;
5191;SDS011;2615;44.524;11.284;2024-02-26T10:22:42;5.47;;;2.57;;
5191;SDS011;2615;44.524;11.284;2024-02-26T10:25:10;14.10;;;3.60;;
5191;SDS011;2615;44.524;11.284;2024-02-26T10:27:40;7.03;;;3.67;;
5191;SDS011;2615;44.524;11.284;2024-02-26T10:30:18;5.80;;;2.87;;
5191;SDS011;2615;44.524;11.284;2024-02-26T10:32:49;18.00;;;4.33;;
5191;SDS011;2615;44.524;11.284;2024-02-26T10:35:18;8.47;;;3.13;;
5191;SDS011;2615;44.524;11.284;2024-02-26T10:37:48;7.97;;;4.07;;
5191;SDS011;2615;44.524;11.284;2024-02-26T10:40:17;10.43;;;3.07;;
5191;SDS011;2615;44.524;11.284;2024-02-26T10:42:45;6.90;;;2.60;;
5191;SDS011;2615;44.524;11.284;2024-02-26T10:45:13;5.37;;;3.93;;
5191;SDS011;2615;44.524;11.284;2024-02-26T10:47:42;5.20;;;3.17;;
5191;SDS011;2615;44.524;11.284;2024-02-26T10:50:12;15.27;;;3.30;;
5191;SDS011;2615;44.524;11.284;2024-02-26T10:52:43;4.80;;;3.07;;
5191;SDS011;2615;44.524;11.284;2024-02-26T10:55:13;5.27;;;2.97;;
5191;SDS011;2615;44.524;11.284;2024-02-26T10:57:45;11.70;;;5.23;;
5191;SDS011;2615;44.524;11.284;2024-02-26T11:00:14;7.03;;;3.50;;
5191;SDS011;2615;44.524;11.284;2024-02-26T11:02:43;8.43;;;3.80;;
5191;SDS011;2615;44.524;11.284;2024-02-26T11:05:14;4.93;;;3.40;;
5191;SDS011;2615;44.524;11.284;2024-02-26T11:07:44;7.27;;;3.43;;
5191;SDS011;2615;44.524;11.284;2024-02-26T11:10:13;6.03;;;3.70;;
5191;SDS011;2615;44.524;11.284;2024-02-26T11:12:44;7.90;;;4.70;;
5191;SDS011;2615;44.524;11.284;2024-02-26T11:15:14;5.80;;;3.20;;
5191;SDS011;2615;44.524;11.284;2024-02-26T11:17:44;5.83;;;3.90;;
5191;SDS011;2615;44.524;11.284;2024-02-26T11:20:16;12.03;;;3.53;;
5191;SDS011;2615;44.524;11.284;2024-02-26T11:22:46;6.10;;;3.57;;
5191;SDS011;2615;44.524;11.284;2024-02-26T11:25:15;12.30;;;3.70;;
5191;SDS011;2615;44.524;11.284;2024-02-26T11:27:44;4.83;;;3.57;;
5191;SDS011;2615;44.524;11.284;2024-02-26T11:30:16;10.60;;;5.30;;
5191;SDS011;2615;44.524;11.284;2024-02-26T11:32:45;12.83;;;4.47;;
5191;SDS011;2615;44.524;11.284;2024-02-26T11:35:15;9.30;;;4.60;;
5191;SDS011;2615;44.524;11.284;2024-02-26T11:37:52;7.57;;;4.20;;
5191;SDS011;2615;44.524;11.284;2024-02-26T11:40:23;6.67;;;4.30;;
5191;SDS011;2615;44.524;11.284;2024-02-26T11:42:52;9.80;;;5.13;;
5191;SDS011;2615;44.524;11.284;2024-02-26T11:48:22;7.00;;;5.17;;
5191;SDS011;2615;44.524;11.284;2024-02-26T11:50:53;7.50;;;5.37;;
5191;SDS011;2615;44.524;11.284;2024-02-26T11:53:23;12.90;;;5.90;;
5191;SDS011;2615;44.524;11.284;2024-02-26T11:58:53;8.13;;;6.33;;
5191;SDS011;2615;44.524;11.284;2024-02-26T12:01:41;9.00;;;6.60;;
5191;SDS011;2615;44.524;11.284;2024-02-26T12:04:14;14.80;;;7.07;;
5191;SDS011;2615;44.524;11.284;2024-02-26T12:06:47;12.23;;;6.97;;
5191;SDS011;2615;44.524;11.284;2024-02-26T12:09:30;10.23;;;6.00;;
5191;SDS011;2615;44.524;11.284;2024-02-26T12:12:00;9.17;;;7.20;;
5191;SDS011;2615;44.524;11.284;2024-02-26T12:14:31;10.33;;;8.00;;
5191;SDS011;2615;44.524;11.284;2024-02-26T12:17:01;14.07;;;8.17;;
5191;SDS011;2615;44.524;11.284;2024-02-26T12:19:33;9.00;;;7.23;;
5191;SDS011;2615;44.524;11.284;2024-02-26T12:22:07;10.27;;;8.50;;
5191;SDS011;2615;44.524;11.284;2024-02-26T12:24:38;12.13;;;7.90;;
5191;SDS011;2615;44.524;11.284;2024-02-26T12:27:06;11.83;;;8.37;;
5191;SDS011;2615;44.524;11.284;2024-02-26T12:29:34;10.73;;;8.13;;
5191;SDS011;2615;44.524;11.284;2024-02-26T12:32:02;14.20;;;9.17;;
5191;SDS011;2615;44.524;11.284;2024-02-26T12:34:33;11.70;;;8.23;;
5191;SDS011;2615;44.524;11.284;2024-02-26T12:37:02;11.17;;;8.57;;
5191;SDS011;2615;44.524;11.284;2024-02-26T12:39:32;11.70;;;8.43;;
5191;SDS011;2615;44.524;11.284;2024-02-26T12:42:00;14.23;;;9.13;;
5191;SDS011;2615;44.524;11.284;2024-02-26T12:44:29;10.80;;;8.03;;
5191;SDS011;2615;44.524;11.284;2024-02-26T12:47:01;9.80;;;7.80;;
5191;SDS011;2615;44.524;11.284;2024-02-26T12:49:30;10.53;;;8.00;;
5191;SDS011;2615;44.524;11.284;2024-02-26T12:51:59;11.70;;;8.53;;
5191;SDS011;2615;44.524;11.284;2024-02-26T12:54:28;10.53;;;8.50;;
5191;SDS011;2615;44.524;11.284;2024-02-26T12:57:00;14.57;;;9.70;;
5191;SDS011;2615;44.524;11.284;2024-02-26T12:59:29;12.17;;;9.10;;
5191;SDS011;2615;44.524;11.284;2024-02-26T13:01:58;13.13;;;8.50;;
5191;SDS011;2615;44.524;11.284;2024-02-26T13:04:27;13.30;;;8.70;;
5191;SDS011;2615;44.524;11.284;2024-02-26T13:06:57;14.40;;;8.87;;
5191;SDS011;2615;44.524;11.284;2024-02-26T13:09:31;30.53;;;10.50;;
5191;SDS011;2615;44.524;11.284;2024-02-26T13:12:03;9.10;;;7.80;;
5191;SDS011;2615;44.524;11.284;2024-02-26T13:14:32;10.80;;;8.20;;
5191;SDS011;2615;44.524;11.284;2024-02-26T13:17:00;9.77;;;7.90;;
5191;SDS011;2615;44.524;11.284;2024-02-26T13:19:29;14.73;;;8.33;;
5191;SDS011;2615;44.524;11.284;2024-02-26T13:22:02;10.10;;;6.87;;
5191;SDS011;2615;44.524;11.284;2024-02-26T13:24:33;12.97;;;8.07;;
5191;SDS011;2615;44.524;11.284;2024-02-26T13:27:03;8.87;;;7.13;;
5191;SDS011;2615;44.524;11.284;2024-02-26T13:29:33;11.97;;;8.23;;
5191;SDS011;2615;44.524;11.284;2024-02-26T13:32:01;7.17;;;6.20;;
5191;SDS011;2615;44.524;11.284;2024-02-26T13:34:31;8.50;;;6.97;;
5191;SDS011;2615;44.524;11.284;2024-02-26T13:37:00;10.17;;;7.97;;
5191;SDS011;2615;44.524;11.284;2024-02-26T13:39:29;8.10;;;7.30;;
5191;SDS011;2615;44.524;11.284;2024-02-26T13:41:58;10.60;;;7.50;;
5191;SDS011;2615;44.524;11.284;2024-02-26T13:44:27;8.10;;;6.63;;
5191;SDS011;2615;44.524;11.284;2024-02-26T13:46:55;8.80;;;7.20;;
5191;SDS011;2615;44.524;11.284;2024-02-26T13:49:23;7.73;;;6.70;;
5191;SDS011;2615;44.524;11.284;2024-02-26T13:51:52;9.17;;;5.97;;
5191;SDS011;2615;44.524;11.284;2024-02-26T13:54:20;11.60;;;6.40;;
5191;SDS011;2615;44.524;11.284;2024-02-26T13:56:48;7.63;;;4.70;;
5191;SDS011;2615;44.524;11.284;2024-02-26T13:59:16;5.40;;;4.07;;
5191;SDS011;2615;44.524;11.284;2024-02-26T14:01:46;4.67;;;3.93;;
5191;SDS011;2615;44.524;11.284;2024-02-26T14:04:14;4.77;;;3.70;;
5191;SDS011;2615;44.524;11.284;2024-02-26T14:06:43;13.60;;;4.00;;
5191;SDS011;2615;44.524;11.284;2024-02-26T14:09:11;4.03;;;2.67;;
5191;SDS011;2615;44.524;11.284;2024-02-26T14:11:45;3.60;;;2.67;;
5191;SDS011;2615;44.524;11.284;2024-02-26T14:14:13;5.57;;;2.70;;
5191;SDS011;2615;44.524;11.284;2024-02-26T14:16:41;5.30;;;3.33;;
5191;SDS011;2615;44.524;11.284;2024-02-26T14:19:11;4.63;;;2.77;;
5191;SDS011;2615;44.524;11.284;2024-02-26T14:21:41;4.70;;;3.10;;
5191;SDS011;2615;44.524;11.284;2024-02-26T14:24:09;4.53;;;2.90;;
5191;SDS011;2615;44.524;11.284;2024-02-26T14:26:38;5.23;;;3.30;;
5191;SDS011;2615;44.524;11.284;2024-02-26T14:29:07;3.17;;;2.27;;
5191;SDS011;2615;44.524;11.284;2024-02-26T14:31:35;6.03;;;2.60;;
5191;SDS011;2615;44.524;11.284;2024-02-26T14:34:03;4.30;;;2.40;;
5191;SDS011;2615;44.524;11.284;2024-02-26T14:36:33;3.60;;;2.47;;
5191;SDS011;2615;44.524;11.284;2024-02-26T14:39:01;4.30;;;2.77;;
5191;SDS011;2615;44.524;11.284;2024-02-26T14:41:30;4.23;;;2.77;;
5191;SDS011;2615;44.524;11.284;2024-02-26T14:43:58;12.07;;;2.73;;
5191;SDS011;2615;44.524;11.284;2024-02-26T14:46:26;7.33;;;2.67;;
5191;SDS011;2615;44.524;11.284;2024-02-26T14:48:54;5.33;;;2.90;;
5191;SDS011;2615;44.524;11.284;2024-02-26T14:51:23;9.97;;;3.30;;
5191;SDS011;2615;44.524;11.284;2024-02-26T14:53:52;3.80;;;2.60;;
5191;SDS011;2615;44.524;11.284;2024-02-26T14:56:20;5.67;;;2.67;;
5191;SDS011;2615;44.524;11.284;2024-02-26T14:58:48;5.27;;;2.90;;
5191;SDS011;2615;44.524;11.284;2024-02-26T15:01:17;5.00;;;2.80;;
5191;SDS011;2615;44.524;11.284;2024-02-26T15:03:45;3.20;;;2.30;;
5191;SDS011;2615;44.524;11.284;2024-02-26T15:06:14;5.93;;;2.60;;
5191;SDS011;2615;44.524;11.284;2024-02-26T15:08:42;8.77;;;3.27;;
5191;SDS011;2615;44.524;11.284;2024-02-26T15:11:11;5.53;;;2.83;;
5191;SDS011;2615;44.524;11.284;2024-02-26T15:13:40;4.70;;;2.93;;
5191;SDS011;2615;44.524;11.284;2024-02-26T15:16:08;6.50;;;2.90;;